Time;durP1;ratioP1;P1;durP2;ratioP2;P2;SDS_P1;SDS_P2;PMS_P1;PMS_P2;Temp;Humidity;BMP_temperature;BMP_pressure;BME280_temperature;BME280_humidity;BME280_pressure;Samples;Min_cycle;Max_cycle;Signal;HPM_P1;HPM_P2
2022/06/13 00:01:51;;;;;;;10.50;2.92;;;;;;;14.25;71.44;101406.81;6159095;23;20010;-73
2022/06/13 00:04:17;;;;;;;12.13;2.85;;;;;;;14.18;71.96;101401.59;6158856;23;20064;-73
2022/06/13 00:06:43;;;;;;;12.10;3.13;;;;;;;14.17;72.13;101410.25;6158599;23;20020;-73
2022/06/13 00:09:09;;;;;;;17.20;3.50;;;;;;;14.15;71.75;101404.13;6158768;23;20010;-73
2022/06/13 00:11:35;;;;;;;11.18;2.95;;;;;;;14.13;72.01;101398.03;6159219;23;20069;-73
2022/06/13 00:14:00;;;;;;;11.45;3.13;;;;;;;14.11;72.05;101403.06;6158807;23;20474;-73
2022/06/13 00:16:26;;;;;;;11.00;3.08;;;;;;;14.08;71.81;101396.94;6158880;23;20379;-73
2022/06/13 00:18:51;;;;;;;13.38;3.60;;;;;;;14.05;72.12;101397.53;6132788;23;20009;-73
2022/06/13 00:21:19;;;;;;;12.05;3.38;;;;;;;14.02;72.15;101400.94;6158516;23;20037;-73
2022/06/13 00:23:44;;;;;;;15.27;3.60;;;;;;;14.02;72.37;101398.13;6158844;23;20068;-73
2022/06/13 00:26:10;;;;;;;12.05;3.50;;;;;;;13.98;72.26;101391.44;6158926;23;20005;-73
2022/06/13 00:28:35;;;;;;;11.23;3.22;;;;;;;13.95;72.18;101394.84;6158633;23;20013;-73
2022/06/13 00:31:01;;;;;;;9.77;2.70;;;;;;;13.97;72.32;101398.19;6158567;23;20013;-73
2022/06/13 00:33:26;;;;;;;8.88;3.03;;;;;;;13.95;71.97;101392.06;6158662;23;20006;-73
2022/06/13 00:35:52;;;;;;;11.32;3.25;;;;;;;13.92;72.20;101389.84;6181616;23;20033;-73
2022/06/13 00:38:17;;;;;;;10.30;3.60;;;;;;;13.90;72.27;101383.75;6158830;23;20005;-73
2022/06/13 00:40:43;;;;;;;11.60;3.22;;;;;;;13.86;72.60;101394.66;6158761;23;20012;-73
2022/06/13 00:43:12;;;;;;;10.77;3.17;;;;;;;13.83;72.85;101386.88;6133003;23;20009;-73
2022/06/13 00:45:37;;;;;;;10.48;2.97;;;;;;;13.81;72.80;101385.50;6134177;23;20002;-73
2022/06/13 00:48:03;;;;;;;8.13;3.00;;;;;;;13.79;72.98;101387.75;6160450;23;20013;-73
2022/06/13 00:50:39;;;;;;;12.65;3.58;;;;;;;13.74;72.65;101380.28;6160066;23;20006;-73
2022/06/13 00:53:15;;;;;;;11.50;3.55;;;;;;;13.70;72.21;101384.75;6134463;23;20140;-73
2022/06/13 00:55:44;;;;;;;12.35;3.47;;;;;;;13.70;72.67;101381.16;6160459;23;20009;-73
2022/06/13 00:58:10;;;;;;;6.30;2.20;;;;;;;13.64;72.46;101386.78;6134927;23;20006;-73
2022/06/13 01:00:35;;;;;;;10.57;3.63;;;;;;;13.63;72.69;101390.69;6160327;23;20006;-73
2022/06/13 01:03:02;;;;;;;10.45;3.38;;;;;;;13.58;72.44;101375.97;6160487;23;20439;-73
2022/06/13 01:05:28;;;;;;;10.57;3.38;;;;;;;13.54;72.54;101374.88;6133872;23;20009;-73
2022/06/13 01:07:54;;;;;;;10.82;3.58;;;;;;;13.51;72.76;101376.31;6086292;23;20431;-73
2022/06/13 01:13:04;;;;;;;12.07;3.53;;;;;;;13.46;73.65;101378.31;6160260;23;20022;-73
2022/06/13 01:15:49;;;;;;;12.05;3.13;;;;;;;13.42;73.32;101383.63;6134315;23;20006;-73
2022/06/13 01:18:39;;;;;;;14.70;3.90;;;;;;;13.39;73.28;101375.84;6134308;23;20060;-73
2022/06/13 01:21:18;;;;;;;12.50;3.30;;;;;;;13.42;73.08;101372.47;6133925;23;20016;-73
2022/06/13 01:23:55;;;;;;;10.18;3.00;;;;;;;13.39;73.42;101378.63;6134038;23;20324;-73
2022/06/13 01:26:39;;;;;;;8.73;2.83;;;;;;;13.34;72.66;101382.28;6160374;23;20009;-73
2022/06/13 01:29:10;;;;;;;9.35;3.13;;;;;;;13.32;73.37;101384.56;6159904;23;20045;-73
2022/06/13 01:31:41;;;;;;;10.80;3.30;;;;;;;13.31;73.02;101382.03;6160130;23;20049;-73
2022/06/13 01:34:12;;;;;;;11.50;3.20;;;;;;;13.26;72.90;101382.94;6160260;23;20021;-73
2022/06/13 01:37:02;;;;;;;16.65;3.60;;;;;;;13.23;73.18;101382.63;6159763;23;20016;-73
2022/06/13 01:39:55;;;;;;;10.70;3.33;;;;;;;13.21;73.34;101382.13;6137943;23;20012;-73
2022/06/13 01:42:39;;;;;;;12.95;3.35;;;;;;;13.18;73.32;101378.78;6160258;23;20060;-73
2022/06/13 01:45:17;;;;;;;11.10;3.22;;;;;;;13.17;73.14;101376.25;6134101;23;20006;-73
2022/06/13 01:47:56;;;;;;;10.50;3.55;;;;;;;13.13;73.38;101383.56;6159954;23;20009;-73
2022/06/13 01:50:38;;;;;;;13.20;3.30;;;;;;;13.09;73.25;101383.31;6135443;23;20336;-74
2022/06/13 01:53:08;;;;;;;11.50;3.33;;;;;;;13.07;73.40;101376.34;6158523;23;20010;-73
2022/06/13 01:55:44;;;;;;;9.90;3.53;;;;;;;13.05;73.27;101379.41;6134228;23;20044;-73
2022/06/13 01:58:10;;;;;;;13.15;3.33;;;;;;;13.02;73.98;101373.59;6159680;23;20004;-74
2022/06/13 02:00:36;;;;;;;10.70;3.30;;;;;;;12.95;74.00;101376.69;6159968;23;20013;-73
2022/06/13 02:03:16;;;;;;;16.05;4.30;;;;;;;12.98;74.76;101378.91;6159854;23;20010;-73
2022/06/13 02:05:46;;;;;;;12.85;3.20;;;;;;;12.93;74.67;101377.00;6133429;23;20013;-73
2022/06/13 02:08:17;;;;;;;10.77;3.22;;;;;;;12.92;74.90;101385.63;6134403;23;20001;-73
2022/06/13 02:10:46;;;;;;;9.73;3.60;;;;;;;12.89;74.57;101386.22;6110112;23;20036;-74
2022/06/13 02:13:15;;;;;;;11.45;3.90;;;;;;;12.89;74.65;101377.84;6133842;23;20013;-73
2022/06/13 02:15:42;;;;;;;9.75;3.70;;;;;;;12.84;74.88;101381.53;6109752;23;20009;-73
2022/06/13 02:18:13;;;;;;;13.77;3.70;;;;;;;12.83;75.09;101381.78;6159821;23;20480;-73
2022/06/13 02:20:41;;;;;;;10.50;3.10;;;;;;;12.79;74.91;101381.56;6109120;23;20005;-73
2022/06/13 02:23:09;;;;;;;12.02;3.33;;;;;;;12.80;74.92;101387.94;6109600;23;20068;-73
2022/06/13 02:26:05;;;;;;;10.45;3.45;;;;;;;12.82;74.53;101394.91;6109463;23;20009;-73
2022/06/13 02:28:43;;;;;;;9.73;3.72;;;;;;;12.78;74.46;101391.00;6146994;23;20012;-73
2022/06/13 02:31:16;;;;;;;13.10;3.78;;;;;;;12.74;74.74;101393.56;6108970;23;20017;-73
2022/06/13 02:34:03;;;;;;;10.18;3.55;;;;;;;12.72;74.98;101386.59;6110117;23;20321;-73
2022/06/13 02:36:34;;;;;;;12.35;3.47;;;;;;;12.73;74.82;101389.09;6135034;23;20009;-73
2022/06/13 02:39:01;;;;;;;14.25;3.80;;;;;;;12.69;74.68;101387.16;6133550;23;20013;-73
2022/06/13 02:41:30;;;;;;;14.15;3.17;;;;;;;12.66;74.59;101388.56;6182841;23;20436;-73
2022/06/13 02:44:05;;;;;;;11.75;3.50;;;;;;;12.63;74.13;101385.53;6109412;23;20017;-73
2022/06/13 02:46:36;;;;;;;10.70;3.50;;;;;;;12.61;74.15;101390.56;6109058;23;20005;-73
2022/06/13 02:49:15;;;;;;;10.88;3.30;;;;;;;12.59;74.29;101387.22;6133259;23;20006;-74
2022/06/13 02:51:48;;;;;;;11.60;3.53;;;;;;;12.57;74.70;101384.72;6133053;23;20013;-73
2022/06/13 02:54:29;;;;;;;11.57;3.08;;;;;;;12.53;74.67;101386.41;6109497;23;20093;-73
2022/06/13 02:57:23;;;;;;;12.20;3.80;;;;;;;12.48;74.96;101389.22;6133384;23;20458;-73
2022/06/13 03:00:30;;;;;;;11.50;3.15;;;;;;;12.45;74.61;101393.44;6138307;23;20009;-73
2022/06/13 03:03:15;;;;;;;9.52;3.38;;;;;;;12.40;74.50;101393.44;6133234;23;20451;-73
2022/06/13 03:05:46;;;;;;;8.90;3.10;;;;;;;12.38;74.53;101389.28;6108559;23;20013;-73
2022/06/13 03:08:21;;;;;;;7.07;3.20;;;;;;;12.31;74.24;101386.78;6133178;23;20088;-73
2022/06/13 03:11:17;;;;;;;11.90;3.38;;;;;;;12.29;74.46;101392.66;6134522;23;20006;-73
2022/06/13 03:13:59;;;;;;;8.02;3.08;;;;;;;12.24;74.67;101398.22;6159260;23;20017;-74
2022/06/13 03:16:33;;;;;;;13.48;3.58;;;;;;;12.21;74.41;101393.22;6135776;23;20031;-73
2022/06/13 03:19:22;;;;;;;11.52;3.17;;;;;;;12.16;74.43;101393.25;6133310;23;20005;-73
2022/06/13 03:21:49;;;;;;;9.25;2.97;;;;;;;12.13;74.50;101395.78;6133999;23;20009;-73
2022/06/13 03:24:24;;;;;;;7.43;2.97;;;;;;;12.09;74.77;101389.94;6108786;23;20005;-73
2022/06/13 03:26:54;;;;;;;8.50;3.20;;;;;;;12.05;74.61;101395.22;6133098;23;20016;-73
2022/06/13 03:29:40;;;;;;;10.80;3.15;;;;;;;12.02;74.72;101397.75;6109097;23;20327;-73
2022/06/13 03:32:26;;;;;;;11.73;3.13;;;;;;;11.98;74.36;101397.47;6159165;23;20009;-74
2022/06/13 03:34:54;;;;;;;13.43;3.42;;;;;;;11.95;74.46;101397.19;6159251;23;20442;-73
2022/06/13 03:37:34;;;;;;;11.32;3.55;;;;;;;11.92;74.46;101395.81;6132563;23;20005;-73
2022/06/13 03:40:18;;;;;;;11.25;3.35;;;;;;;11.86;74.51;101388.59;6133103;23;20009;-73
2022/06/13 03:42:55;;;;;;;9.40;3.08;;;;;;;11.85;74.40;101390.53;6108756;23;20010;-73
2022/06/13 03:45:54;;;;;;;11.30;3.60;;;;;;;11.79;74.95;101397.19;6110668;23;20009;-73
2022/06/13 03:48:26;;;;;;;10.02;3.90;;;;;;;11.77;74.96;101393.03;6138596;23;20006;-73
2022/06/13 03:51:11;;;;;;;10.23;2.60;;;;;;;11.74;74.56;101393.59;6158452;23;20005;-73
2022/06/13 03:53:41;;;;;;;11.65;3.63;;;;;;;11.73;74.57;101392.75;6133081;23;20418;-74
2022/06/13 03:56:26;;;;;;;11.85;3.38;;;;;;;11.69;75.38;101391.63;6133689;23;20005;-73
2022/06/13 03:59:07;;;;;;;10.45;3.35;;;;;;;11.61;75.92;101394.97;6132886;23;20056;-73
2022/06/13 04:01:39;;;;;;;14.75;4.07;;;;;;;11.59;76.30;101388.88;6110618;23;20017;-73
2022/06/13 04:04:05;;;;;;;15.15;4.10;;;;;;;11.57;77.60;101393.88;6109399;23;20006;-73
2022/06/13 04:06:40;;;;;;;11.23;3.67;;;;;;;11.57;77.83;101394.72;6158512;23;20391;-73
2022/06/13 04:09:15;;;;;;;17.75;4.70;;;;;;;11.54;78.68;101400.00;6132841;23;20006;-73
2022/06/13 04:12:02;;;;;;;17.20;5.45;;;;;;;11.48;79.70;101401.09;6109443;23;20016;-73
2022/06/13 04:14:41;;;;;;;15.52;3.75;;;;;;;11.48;79.35;101398.31;6132988;23;20009;-73
2022/06/13 04:17:30;;;;;;;15.45;4.20;;;;;;;11.45;80.73;101402.53;6133355;23;20443;-73
2022/06/13 04:20:18;;;;;;;9.10;4.15;;;;;;;11.47;79.58;101394.72;6112821;23;20017;-73
2022/06/13 04:22:55;;;;;;;15.30;4.43;;;;;;;11.50;79.27;101402.50;6160938;23;20016;-73
2022/06/13 04:25:25;;;;;;;13.52;4.18;;;;;;;11.51;79.97;101395.00;6160782;23;20012;-73
2022/06/13 04:28:01;;;;;;;14.75;4.00;;;;;;;11.51;79.45;101400.56;6110653;23;20473;-73
2022/06/13 04:30:28;;;;;;;11.93;4.10;;;;;;;11.52;82.17;101402.22;6159744;23;20392;-73
2022/06/13 04:33:17;;;;;;;14.65;4.22;;;;;;;11.55;80.22;101402.50;6134730;23;20041;-73
2022/06/13 04:35:42;;;;;;;11.85;3.75;;;;;;;11.63;81.18;101404.72;6134347;23;20021;-73
2022/06/13 04:38:10;;;;;;;14.55;3.67;;;;;;;11.71;80.45;101408.91;6134580;23;20005;-73
2022/06/13 04:40:37;;;;;;;13.15;3.90;;;;;;;11.77;80.16;101410.56;6160818;23;20009;-73
2022/06/13 04:43:05;;;;;;;12.10;4.03;;;;;;;11.87;80.78;101415.31;6110552;23;20005;-73
2022/06/13 04:45:35;;;;;;;12.07;3.50;;;;;;;11.93;81.57;101419.75;6134888;23;20128;-73
2022/06/13 04:48:01;;;;;;;21.65;4.90;;;;;;;12.00;90.23;101420.28;6109991;23;20096;-73
2022/06/13 04:50:35;;;;;;;11.18;3.72;;;;;;;12.08;87.04;101421.66;6134019;23;20017;-73
2022/06/13 04:53:01;;;;;;;15.98;4.55;;;;;;;12.15;91.07;101416.66;6110573;23;20031;-73
2022/06/13 04:55:49;;;;;;;19.60;4.38;;;;;;;12.22;92.09;101428.31;6160399;23;20037;-73
2022/06/13 04:58:31;;;;;;;16.60;4.03;;;;;;;12.34;91.73;101424.38;6138007;23;20010;-73
2022/06/13 05:01:07;;;;;;;14.53;4.27;;;;;;;12.43;92.21;101419.91;6134707;23;20006;-71
2022/06/13 05:03:37;;;;;;;16.40;4.03;;;;;;;12.53;91.34;101415.09;6136458;23;20228;-71
2022/06/13 05:06:05;;;;;;;16.35;4.30;;;;;;;12.64;89.82;101413.09;6160145;23;20010;-71
2022/06/13 05:08:34;;;;;;;19.70;4.13;;;;;;;12.75;89.22;101417.50;6110273;23;20006;-71
2022/06/13 05:11:19;;;;;;;16.17;4.07;;;;;;;12.92;85.69;101419.91;6134284;23;20006;-72
2022/06/13 05:13:45;;;;;;;14.63;3.85;;;;;;;13.09;84.94;101418.72;6137091;23;20009;-72
2022/06/13 05:16:42;;;;;;;16.58;4.30;;;;;;;13.23;84.91;101416.94;6086216;23;20020;-72
2022/06/13 05:19:44;;;;;;;19.77;4.53;;;;;;;13.44;83.40;101414.88;6136357;23;20005;-72
2022/06/13 05:22:33;;;;;;;12.75;3.30;;;;;;;13.61;83.70;101409.69;6133931;23;20579;-72
2022/06/13 05:25:03;;;;;;;16.95;4.15;;;;;;;13.76;82.56;101410.66;6137943;23;20001;-73
2022/06/13 05:27:28;;;;;;;14.70;3.85;;;;;;;13.88;82.59;101413.91;6134426;23;20002;-73
2022/06/13 05:29:54;;;;;;;11.80;3.55;;;;;;;14.09;80.25;101420.13;6159935;23;20428;-74
2022/06/13 05:32:20;;;;;;;13.10;3.63;;;;;;;14.23;79.17;101423.03;6158020;23;20006;-73
2022/06/13 05:34:46;;;;;;;13.63;3.15;;;;;;;14.38;77.72;101419.25;6133824;23;20036;-73
2022/06/13 05:37:13;;;;;;;16.45;3.78;;;;;;;14.54;78.46;101420.72;6133690;23;20009;-73
2022/06/13 05:39:38;;;;;;;17.20;3.40;;;;;;;14.70;77.35;101418.59;6109795;23;20089;-73
2022/06/13 05:42:04;;;;;;;14.25;3.80;;;;;;;14.85;77.40;101420.34;6160232;23;20011;-73
2022/06/13 05:44:29;;;;;;;13.85;3.83;;;;;;;14.99;76.89;101421.28;6160062;23;20010;-73
2022/06/13 05:46:55;;;;;;;15.98;3.90;;;;;;;15.16;76.21;101415.16;6134145;23;20012;-73
2022/06/13 05:49:20;;;;;;;13.70;3.42;;;;;;;15.34;74.99;101424.66;6133733;23;20788;-73
2022/06/13 05:51:46;;;;;;;13.43;3.38;;;;;;;15.50;73.46;101420.47;6133574;23;20005;-73
2022/06/13 05:54:12;;;;;;;15.90;3.40;;;;;;;15.68;72.73;101430.00;6134307;23;20005;-73
2022/06/13 05:56:38;;;;;;;15.45;3.35;;;;;;;15.77;72.33;101432.94;6160070;23;20013;-73
2022/06/13 05:59:03;;;;;;;10.48;2.92;;;;;;;15.89;72.15;101433.28;6134137;23;20474;-73
2022/06/13 06:01:29;;;;;;;13.00;3.10;;;;;;;16.05;71.61;101436.66;6133840;23;20005;-73
2022/06/13 06:03:54;;;;;;;16.60;3.58;;;;;;;16.17;70.60;101438.94;6133788;23;20009;-74
2022/06/13 06:06:24;;;;;;;14.70;3.33;;;;;;;16.29;70.99;101442.88;6159557;23;20040;-74
2022/06/13 06:08:50;;;;;;;18.33;3.83;;;;;;;16.39;70.20;101439.06;6134548;23;20009;-73
2022/06/13 06:11:15;;;;;;;14.07;3.38;;;;;;;16.50;69.96;101443.31;6159883;23;20013;-73
2022/06/13 06:13:41;;;;;;;13.75;3.40;;;;;;;16.63;70.00;101457.63;6159753;23;20032;-73
2022/06/13 06:16:06;;;;;;;14.90;3.85;;;;;;;16.76;69.28;101448.41;6159776;23;20308;-74
2022/06/13 06:18:32;;;;;;;17.25;3.42;;;;;;;16.83;68.92;101453.63;6159828;23;20005;-74
2022/06/13 06:20:58;;;;;;;12.23;3.60;;;;;;;16.94;68.23;101452.25;6159425;23;20017;-71
2022/06/13 06:23:24;;;;;;;15.30;3.78;;;;;;;17.05;68.37;101444.44;6109398;23;20091;-71
2022/06/13 06:25:49;;;;;;;13.02;3.30;;;;;;;17.13;67.69;101443.69;6133865;23;20010;-72
2022/06/13 06:28:18;;;;;;;12.63;2.95;;;;;;;17.30;66.89;101459.84;6133644;23;20009;-72
2022/06/13 06:30:43;;;;;;;18.40;3.60;;;;;;;17.32;66.63;101451.94;6133596;23;20028;-72
2022/06/13 06:33:09;;;;;;;15.63;3.53;;;;;;;17.33;66.57;101456.44;6108117;23;20005;-71
2022/06/13 06:35:34;;;;;;;14.02;3.20;;;;;;;17.41;65.88;101456.50;6132721;23;20020;-71
2022/06/13 06:38:00;;;;;;;11.57;3.15;;;;;;;17.50;65.87;101450.13;6108304;23;20013;-72
2022/06/13 06:40:26;;;;;;;15.98;3.13;;;;;;;17.65;66.09;101447.75;6109012;23;20013;-71
2022/06/13 06:42:51;;;;;;;14.65;3.03;;;;;;;17.75;65.61;101452.31;6159522;23;20096;-71
2022/06/13 06:45:17;;;;;;;12.68;2.80;;;;;;;17.81;64.67;101450.22;6159870;23;20009;-72
2022/06/13 06:47:43;;;;;;;14.20;3.20;;;;;;;17.95;64.34;101447.34;6133540;23;20013;-72
2022/06/13 06:50:21;;;;;;;11.65;3.15;;;;;;;18.12;64.15;101452.22;6108640;23;20012;-71
2022/06/13 06:52:46;;;;;;;13.00;3.78;;;;;;;18.22;64.14;101452.78;6085494;23;20431;-71
2022/06/13 07:00:41;;;;;;;13.20;3.25;;;;;;;18.55;60.75;101474.91;6137362;23;20055;-71
2022/06/13 07:03:06;;;;;;;13.55;3.20;;;;;;;18.73;60.65;101475.81;6084628;23;20017;-71
2022/06/13 07:05:32;;;;;;;14.18;3.08;;;;;;;18.79;59.33;101477.34;6108639;23;20017;-71
2022/06/13 07:07:57;;;;;;;15.88;3.00;;;;;;;18.88;58.87;101481.00;6108801;23;20044;-72
2022/06/13 07:10:23;;;;;;;15.57;3.05;;;;;;;18.96;58.50;101480.22;6108776;23;20013;-71
2022/06/13 07:12:49;;;;;;;7.53;2.58;;;;;;;19.03;58.18;101484.53;6108893;23;20334;-71
2022/06/13 07:15:14;;;;;;;13.57;2.67;;;;;;;19.00;56.91;101480.41;6156108;23;20006;-71
2022/06/13 07:17:40;;;;;;;13.63;3.00;;;;;;;19.02;56.87;101485.69;6156968;23;20016;-71
2022/06/13 07:20:06;;;;;;;16.67;2.92;;;;;;;19.17;56.76;101488.06;6132757;23;20012;-72
2022/06/13 07:22:31;;;;;;;13.00;2.83;;;;;;;19.27;56.15;101496.16;6133406;23;20052;-71
2022/06/13 07:24:57;;;;;;;10.27;2.35;;;;;;;19.35;55.91;101491.72;6159118;23;20064;-71
2022/06/13 07:27:23;;;;;;;11.60;2.60;;;;;;;19.41;56.02;101491.22;6108857;23;20108;-72
2022/06/13 07:29:48;;;;;;;10.25;2.90;;;;;;;19.52;55.27;101491.72;6079692;23;20014;-72
2022/06/13 07:32:23;;;;;;;15.07;2.47;;;;;;;19.66;54.81;101493.56;6129719;23;20573;-72
2022/06/13 07:34:50;;;;;;;12.45;3.00;;;;;;;19.67;54.54;101493.25;6152071;23;20014;-72
2022/06/13 07:40:08;;;;;;;11.45;3.00;;;;;;;19.96;53.23;101483.28;6103695;23;20010;-71
2022/06/13 07:42:36;;;;;;;11.23;2.70;;;;;;;20.09;53.13;101479.44;6103362;23;20403;-72
2022/06/13 07:45:02;;;;;;;11.65;2.72;;;;;;;20.18;52.40;101477.41;6127820;23;20376;-71
2022/06/13 07:47:27;;;;;;;16.35;2.80;;;;;;;20.40;52.15;101486.81;6126703;23;20017;-72
2022/06/13 07:49:53;;;;;;;9.77;2.53;;;;;;;20.59;51.77;101481.63;6152342;23;20490;-71
2022/06/13 07:52:18;;;;;;;11.30;3.13;;;;;;;20.65;50.66;101488.72;6152443;23;20010;-72
2022/06/13 07:54:44;;;;;;;8.77;2.45;;;;;;;20.85;50.93;101478.66;6127927;23;20005;-72
2022/06/13 07:57:10;;;;;;;8.80;2.05;;;;;;;21.05;50.40;101482.69;6152749;23;20006;-71
2022/06/13 07:59:35;;;;;;;9.32;2.50;;;;;;;21.12;48.98;101479.34;6152611;23;20009;-72
2022/06/13 08:02:01;;;;;;;8.68;2.40;;;;;;;21.16;49.20;101485.94;6152736;23;20033;-72
2022/06/13 08:04:28;;;;;;;9.88;2.63;;;;;;;21.27;47.91;101477.91;6152487;23;20514;-72
2022/06/13 08:06:53;;;;;;;10.98;1.70;;;;;;;21.23;46.32;101488.22;6127871;23;20100;-72
2022/06/13 08:09:19;;;;;;;10.32;2.28;;;;;;;21.23;46.70;101496.69;6152530;23;20033;-72
2022/06/13 08:11:49;;;;;;;7.40;1.90;;;;;;;21.20;45.54;101484.94;6177537;23;20006;-72
2022/06/13 08:14:14;;;;;;;8.57;1.80;;;;;;;21.26;45.61;101484.72;6127736;23;20037;-72
2022/06/13 08:16:40;;;;;;;8.65;2.17;;;;;;;21.22;44.75;101487.41;6152730;23;20013;-72
2022/06/13 08:19:05;;;;;;;10.57;2.13;;;;;;;21.25;45.22;101489.53;6152676;23;20006;-72
2022/06/13 08:21:31;;;;;;;9.10;1.63;;;;;;;21.30;44.77;101492.16;6152530;23;20011;-72
2022/06/13 08:23:57;;;;;;;9.30;2.10;;;;;;;21.42;45.31;101480.13;6152637;23;20016;-72
2022/06/13 08:26:22;;;;;;;8.90;2.05;;;;;;;21.51;45.33;101482.91;6152591;23;20010;-71
2022/06/13 08:28:48;;;;;;;10.10;2.10;;;;;;;21.66;44.10;101475.78;6127927;23;20010;-71
2022/06/13 08:31:15;;;;;;;7.20;1.92;;;;;;;21.60;44.36;101473.16;6152267;23;20018;-71
2022/06/13 08:33:40;;;;;;;6.60;1.83;;;;;;;21.71;44.37;101467.91;6152195;23;20018;-71
2022/06/13 08:36:06;;;;;;;7.03;2.17;;;;;;;21.84;44.34;101466.81;6152232;23;20016;-71
2022/06/13 08:38:32;;;;;;;6.38;2.00;;;;;;;21.90;44.34;101470.25;6177243;23;20002;-72
2022/06/13 08:41:13;;;;;;;5.68;1.73;;;;;;;21.96;43.64;101468.84;6152383;23;20009;-72
2022/06/13 08:44:00;;;;;;;6.00;1.83;;;;;;;21.99;43.45;101458.84;6126392;23;20012;-72
2022/06/13 08:46:44;;;;;;;8.10;2.05;;;;;;;22.17;43.11;101459.47;6129279;23;20010;-72
2022/06/13 08:49:14;;;;;;;9.07;2.05;;;;;;;22.17;42.54;101460.28;6129104;23;20017;-72
2022/06/13 08:51:58;;;;;;;7.63;2.00;;;;;;;22.23;42.09;101453.28;6175715;23;20006;-72
2022/06/13 08:54:26;;;;;;;8.40;1.63;;;;;;;22.31;41.96;101448.66;6129463;23;20033;-71
2022/06/13 08:56:52;;;;;;;5.90;1.42;;;;;;;22.50;41.61;101445.28;6127586;23;20016;-71
2022/06/13 08:59:35;;;;;;;3.97;1.38;;;;;;;22.46;41.37;101450.81;6127649;23;20002;-71
2022/06/13 09:02:28;;;;;;;5.50;1.60;;;;;;;22.43;40.48;101443.03;6103219;23;20016;-71
2022/06/13 09:04:57;;;;;;;7.63;2.17;;;;;;;;;;6127423;23;20149;-72
2022/06/13 09:07:30;;;;;;;8.38;1.90;;;;;;;22.47;40.78;101440.31;6178626;23;20018;-71
2022/06/13 09:09:58;;;;;;;4.05;1.40;;;;;;;22.68;40.76;101434.56;6131069;23;20096;-71
2022/06/13 09:12:49;;;;;;;7.63;1.60;;;;;;;22.88;40.40;101438.44;6131114;23;20046;-71
2022/06/13 09:15:23;;;;;;;5.90;1.55;;;;;;;22.84;40.04;101438.31;6177525;23;20016;-71
2022/06/13 09:17:55;;;;;;;8.55;1.55;;;;;;;22.85;39.22;101439.97;6154378;23;20309;-71
2022/06/13 09:20:27;;;;;;;7.50;1.40;;;;;;;22.93;39.22;101435.38;6130643;23;20010;-71
2022/06/13 09:23:03;;;;;;;6.82;1.50;;;;;;;23.03;39.56;101439.75;6177280;23;20009;-71
2022/06/13 09:25:35;;;;;;;7.30;1.52;;;;;;;23.11;39.01;101436.78;6178827;23;20060;-71
2022/06/13 09:28:22;;;;;;;7.82;1.80;;;;;;;23.09;38.75;101438.31;6178881;23;20095;-71
2022/06/13 09:30:54;;;;;;;7.93;2.00;;;;;;;23.02;38.05;101432.44;6129158;23;20018;-71
2022/06/13 09:33:29;;;;;;;6.38;1.80;;;;;;;23.17;38.87;101437.34;6128107;23;20515;-71
2022/06/13 09:35:58;;;;;;;7.28;1.60;;;;;;;23.23;38.06;101433.06;6153355;23;20014;-71
2022/06/13 09:38:41;;;;;;;6.88;1.83;;;;;;;23.26;38.38;101434.38;6153228;23;20038;-71
2022/06/13 09:41:27;;;;;;;;;;;;;;;23.14;38.44;101424.72;6104743;23;20125;-71
2022/06/13 09:44:33;;;;;;;7.55;1.75;;;;;;;23.32;38.19;101419.59;6114512;23;19904;-72
2022/06/13 09:47:11;;;;;;;6.00;1.52;;;;;;;23.30;38.74;101423.97;6149937;23;20036;-71
2022/06/13 09:50:05;;;;;;;5.97;1.70;;;;;;;23.47;38.67;101414.34;6153331;23;20013;-71
2022/06/13 09:52:40;;;;;;;5.72;1.63;;;;;;;23.33;38.23;101415.56;6171312;23;20052;-71
2022/06/13 09:55:16;;;;;;;5.32;1.70;;;;;;;23.46;38.21;101424.03;6178592;23;20014;-71
2022/06/13 09:58:00;;;;;;;7.32;1.63;;;;;;;23.51;38.11;101404.75;6178570;23;20006;-72
2022/06/13 10:00:33;;;;;;;7.68;1.50;;;;;;;23.61;37.94;101403.41;6130616;23;20070;-72
2022/06/13 10:03:17;;;;;;;6.75;1.48;;;;;;;23.74;38.39;101399.38;6178518;23;20033;-71
2022/06/13 10:06:07;;;;;;;8.45;1.60;;;;;;;23.87;38.19;101405.78;6151372;23;20045;-71
2022/06/13 10:08:58;;;;;;;5.82;1.48;;;;;;;23.82;38.04;101408.88;6126823;23;20010;-71
2022/06/13 10:11:39;;;;;;;8.95;1.60;;;;;;;23.96;37.71;101408.44;6149812;23;20016;-72
2022/06/13 10:14:16;;;;;;;6.20;1.90;;;;;;;24.16;37.40;101398.88;6128897;23;20010;-71
2022/06/13 10:17:11;;;;;;;8.25;2.03;;;;;;;24.23;37.93;101401.06;6153334;23;20017;-71
2022/06/13 10:19:56;;;;;;;9.60;1.88;;;;;;;24.22;37.23;101403.09;6124929;23;20429;-72
2022/06/13 10:22:29;;;;;;;6.38;1.63;;;;;;;24.19;36.90;101406.66;6128074;23;20010;-71
2022/06/13 10:25:13;;;;;;;6.28;1.75;;;;;;;24.17;37.18;101391.19;6129205;23;20016;-72
2022/06/13 10:27:57;;;;;;;5.70;1.67;;;;;;;24.17;37.08;101400.53;6130112;23;20010;-71
2022/06/13 10:30:33;;;;;;;9.55;1.85;;;;;;;24.26;36.96;101395.47;6148656;23;20048;-71
2022/06/13 10:33:17;;;;;;;8.20;1.92;;;;;;;24.27;36.79;101393.50;6133883;23;20040;-71
2022/06/13 10:35:50;;;;;;;6.85;1.77;;;;;;;24.52;37.36;101389.28;6110799;23;20487;-72
2022/06/13 10:38:37;;;;;;;6.55;1.75;;;;;;;24.59;36.99;101391.47;6108441;23;20319;-71
2022/06/13 10:41:03;;;;;;;7.55;1.98;;;;;;;24.69;37.22;101390.91;6133597;23;20016;-72
2022/06/13 10:43:29;;;;;;;10.50;2.05;;;;;;;24.78;36.76;101399.22;6109467;23;20005;-72
2022/06/13 10:45:55;;;;;;;7.78;1.85;;;;;;;24.87;36.61;101390.50;6109127;23;20056;-71
2022/06/13 10:48:31;;;;;;;6.28;1.73;;;;;;;24.89;36.68;101394.59;6108405;23;20335;-72
2022/06/13 10:50:58;;;;;;;8.57;1.90;;;;;;;24.93;36.52;101389.84;6132856;23;20009;-72
2022/06/13 10:53:30;;;;;;;5.53;1.90;;;;;;;24.92;36.32;101382.50;6109365;23;20001;-71
2022/06/13 10:55:57;;;;;;;6.57;1.90;;;;;;;25.19;36.22;101386.38;6133671;23;20454;-72
2022/06/13 10:58:27;;;;;;;6.57;2.00;;;;;;;25.24;36.70;101387.28;6133359;23;20431;-71
2022/06/13 11:01:02;;;;;;;7.25;1.92;;;;;;;25.43;36.75;101387.28;6159444;23;20010;-71
2022/06/13 11:03:27;;;;;;;8.50;2.30;;;;;;;25.60;35.92;101386.84;6159548;23;20017;-71
2022/06/13 11:05:59;;;;;;;8.48;1.88;;;;;;;25.77;36.41;101385.53;6107819;23;20068;-71
2022/06/13 11:08:25;;;;;;;39.78;3.15;;;;;;;25.73;36.02;101384.63;6110405;23;20056;-71
2022/06/13 11:10:56;;;;;;;45.78;3.92;;;;;;;25.72;35.79;101374.47;6108948;23;20005;-71
2022/06/13 11:13:24;;;;;;;16.48;2.42;;;;;;;25.86;35.57;101365.41;6109817;23;20016;-71
2022/06/13 11:24:52;;;;;;;9.13;2.00;;;;;;;26.29;35.88;101344.19;6116316;23;20009;-71
2022/06/13 11:27:41;;;;;;;11.30;2.28;;;;;;;26.35;35.54;101350.38;6108773;23;20639;-71
2022/06/13 11:30:40;;;;;;;12.18;2.33;;;;;;;26.38;35.48;101343.09;6110927;23;20049;-71
2022/06/13 11:33:09;;;;;;;16.33;2.63;;;;;;;26.59;34.81;101343.47;6133052;23;20037;-71
2022/06/13 11:35:43;;;;;;;10.95;1.92;;;;;;;26.56;34.54;101349.94;6158775;23;20025;-71
2022/06/13 11:38:18;;;;;;;7.45;1.95;;;;;;;26.53;34.57;101345.00;6133068;23;20001;-71
2022/06/13 11:40:58;;;;;;;6.20;1.70;;;;;;;26.67;34.89;101333.00;6158755;23;20051;-72
2022/06/13 11:43:37;;;;;;;9.75;2.00;;;;;;;26.67;34.81;101333.00;6109130;23;20020;-72
2022/06/13 11:46:05;;;;;;;7.70;1.77;;;;;;;26.79;35.04;101335.63;6159063;23;20040;-71
2022/06/13 11:48:31;;;;;;;7.43;2.10;;;;;;;26.79;34.93;101329.91;6108972;23;20041;-71
2022/06/13 11:50:59;;;;;;;6.68;1.80;;;;;;;26.67;34.32;101327.31;6132481;23;20028;-71
2022/06/13 11:53:36;;;;;;;5.85;1.83;;;;;;;26.64;34.36;101336.63;6108921;23;20093;-71
2022/06/13 11:56:07;;;;;;;11.38;2.33;;;;;;;26.63;34.26;101335.78;6113504;23;20019;-71
2022/06/13 11:58:37;;;;;;;9.13;1.88;;;;;;;26.85;34.27;101327.56;6084781;23;20010;-71
2022/06/13 12:01:21;;;;;;;7.00;1.95;;;;;;;26.99;34.29;101321.22;6158334;23;20400;-71
2022/06/13 12:03:58;;;;;;;9.50;2.00;;;;;;;27.08;34.08;101319.72;6158979;23;20010;-71
2022/06/13 12:06:24;;;;;;;6.07;1.70;;;;;;;27.00;33.56;101325.75;6134846;23;20013;-71
2022/06/13 12:08:50;;;;;;;7.07;2.08;;;;;;;26.87;33.89;101330.84;6107898;23;20006;-71